createdAt,value
2018-11-12T00:00:35.749Z,7.83
2018-11-12T00:10:40.637Z,8.30
2018-11-12T00:20:45.313Z,7.63
2018-11-12T00:30:50.031Z,7.73
2018-11-12T00:40:54.800Z,8.30
2018-11-12T00:50:59.393Z,7.57
2018-11-12T01:01:04.591Z,7.37
2018-11-12T01:11:09.396Z,7.90
2018-11-12T01:21:14.169Z,8.33
2018-11-12T01:31:19.010Z,8.87
2018-11-12T01:41:23.731Z,8.47
2018-11-12T01:51:28.574Z,9.20
2018-11-12T02:01:33.312Z,8.73
2018-11-12T02:11:38.057Z,8.43
2018-11-12T02:21:42.926Z,8.00
2018-11-12T02:31:47.675Z,7.73
2018-11-12T02:41:52.405Z,8.87
2018-11-12T02:51:57.140Z,8.33
2018-11-12T03:02:01.845Z,8.27
2018-11-12T03:12:06.674Z,7.73
2018-11-12T03:22:11.312Z,8.37
2018-11-12T03:32:16.068Z,8.07
2018-11-12T03:42:21.448Z,7.60
2018-11-12T03:52:26.260Z,8.17
2018-11-12T04:02:30.846Z,8.40
2018-11-12T04:12:35.652Z,8.00
2018-11-12T04:22:41.323Z,7.97
2018-11-12T04:32:46.903Z,7.67
2018-11-12T04:42:52.025Z,7.93
2018-11-12T04:52:56.969Z,7.83
2018-11-12T05:03:02.191Z,7.17
2018-11-12T05:13:07.176Z,7.33
2018-11-12T05:23:12.049Z,7.57
2018-11-12T05:33:17.439Z,7.33
2018-11-12T05:43:22.076Z,7.43
2018-11-12T05:53:27.866Z,7.37
2018-11-12T06:03:32.579Z,6.77
2018-11-12T06:13:37.447Z,6.80
2018-11-12T06:23:42.083Z,6.70
2018-11-12T06:33:46.846Z,7.17
2018-11-12T06:43:51.540Z,6.90
2018-11-12T06:53:56.413Z,6.83
2018-11-12T07:04:01.281Z,6.50
2018-11-12T07:14:06.893Z,6.73
2018-11-12T07:24:11.679Z,6.60
2018-11-12T07:34:16.433Z,6.43
2018-11-12T07:44:21.173Z,6.93
2018-11-12T07:54:26.657Z,7.00
2018-11-12T08:04:31.679Z,6.60
2018-11-12T08:14:36.742Z,6.70
2018-11-12T08:24:41.446Z,6.27
2018-11-12T08:34:46.758Z,6.30
2018-11-12T08:44:51.777Z,6.40
2018-11-12T08:54:56.533Z,5.60
2018-11-12T09:05:01.285Z,6.43
2018-11-12T09:15:06.835Z,6.40
2018-11-12T09:25:14.224Z,6.07
2018-11-12T09:35:20.271Z,6.30
2018-11-12T09:45:25.817Z,6.20
2018-11-12T09:55:31.509Z,6.20
2018-11-12T10:05:37.296Z,6.13
2018-11-12T10:15:43.518Z,6.97
2018-11-12T10:25:45.674Z,6.80
2018-11-12T10:35:50.388Z,6.60
2018-11-12T10:45:55.999Z,6.97
2018-11-12T10:56:00.926Z,7.33
2018-11-12T11:06:06.591Z,7.17
2018-11-12T11:16:12.378Z,8.20
2018-11-12T11:26:17.366Z,8.80
2018-11-12T11:36:22.237Z,8.87
2018-11-12T11:46:27.905Z,10.33
2018-11-12T11:56:32.619Z,9.13
2018-11-12T12:06:37.476Z,9.03
2018-11-12T12:16:42.364Z,9.83
2018-11-12T12:26:47.143Z,9.43
2018-11-12T12:36:52.554Z,10.53
2018-11-12T12:46:57.312Z,14.97
2018-11-12T12:57:02.113Z,18.23
2018-11-12T13:07:07.065Z,19.43
2018-11-12T13:17:12.654Z,18.67
2018-11-12T13:27:18.068Z,17.80
2018-11-12T13:37:24.032Z,20.13
2018-11-12T13:47:31.575Z,20.83
2018-11-12T13:57:36.725Z,20.80
2018-11-12T14:07:42.396Z,18.93
2018-11-12T14:17:47.810Z,20.03
2018-11-12T14:27:54.224Z,16.43
2018-11-12T14:37:59.599Z,17.03
2018-11-12T14:48:04.340Z,17.33
2018-11-12T14:58:09.160Z,13.87
2018-11-12T15:08:14.033Z,12.63
2018-11-12T15:18:19.282Z,12.27
2018-11-12T15:28:25.569Z,12.33
2018-11-12T15:38:30.237Z,12.57
2018-11-12T15:48:35.971Z,14.03
2018-11-12T15:58:41.022Z,11.07
2018-11-12T16:08:45.807Z,10.20
2018-11-12T16:18:52.281Z,14.77
2018-11-12T16:28:57.240Z,11.30
2018-11-12T16:39:02.145Z,13.33
2018-11-12T16:49:07.355Z,12.63
2018-11-12T16:59:12.009Z,11.10
2018-11-12T17:09:17.140Z,10.50
2018-11-12T17:19:21.803Z,10.13
2018-11-12T17:29:26.596Z,9.73
2018-11-12T17:39:31.273Z,16.67
2018-11-12T17:49:36.872Z,14.50
2018-11-12T17:59:43.457Z,15.23
2018-11-12T18:09:48.241Z,10.67
2018-11-12T18:19:53.887Z,51.13
2018-11-12T18:29:59.611Z,48.53
2018-11-12T18:40:04.827Z,44.50
2018-11-12T18:50:13.307Z,108.57
2018-11-12T19:00:22.256Z,33.37
2018-11-12T19:10:29.423Z,28.87
2018-11-12T19:20:36.953Z,27.10
2018-11-12T19:30:45.988Z,26.23
2018-11-12T19:40:50.939Z,23.43
2018-11-12T19:50:56.388Z,22.60
2018-11-12T20:01:01.182Z,20.07
2018-11-12T20:11:06.450Z,26.63
2018-11-12T20:21:13.945Z,19.43
2018-11-12T20:31:18.681Z,17.30
2018-11-12T20:41:23.583Z,16.20
2018-11-12T20:51:28.443Z,16.30
2018-11-12T21:01:34.838Z,15.60
2018-11-12T21:11:40.075Z,15.27
2018-11-12T21:21:45.028Z,16.10
2018-11-12T21:31:49.748Z,13.70
2018-11-12T21:41:54.501Z,13.63
2018-11-12T21:51:59.830Z,14.10
2018-11-12T22:02:04.519Z,13.43
2018-11-12T22:12:09.114Z,13.63
2018-11-12T22:22:13.844Z,13.13
2018-11-12T22:32:18.681Z,12.53
2018-11-12T22:42:23.412Z,13.00
2018-11-12T22:52:28.940Z,11.93
2018-11-12T23:02:33.591Z,13.60
2018-11-12T23:12:38.437Z,17.00
2018-11-12T23:22:43.967Z,20.30
2018-11-12T23:32:48.620Z,16.80
2018-11-12T23:42:53.627Z,15.87
2018-11-12T23:52:58.238Z,12.07
